This is the latest recevied weather packets stored in our database for station/object KN6CRX. If no packets are shown the sender has not sent any weather packets the latest 10 day(s).
| Time | Temp. | Humidity | Pressure | Rain* | Wind** | Luminosity | Snow |
|---|---|---|---|---|---|---|---|
| 1787363264 | 27.78° C | 35% | 1022.5 hPa | 0 mm | - | 22 W/m² | - |
| 1787362959 | 28.33° C | 34% | 1022.3 hPa | 0 mm | - | 25 W/m² | - |
| 1787362654 | 29.44° C | 32% | 1022.2 hPa | 0 mm | - | 26 W/m² | - |
| 1787362350 | 30.56° C | 29% | 1022.2 hPa | 0 mm | - | 30 W/m² | - |
| 1787362048 | 31.11° C | 27% | 1021.6 hPa | 0 mm | - | 32 W/m² | - |
| 1787361744 | 31.67° C | 26% | 1021.7 hPa | 0 mm | - | 31 W/m² | - |
| 1787361443 | 31.11° C | 25% | 1021.5 hPa | 0 mm | - | 40 W/m² | - |
| 1787361138 | 31.11° C | 25% | 1021.3 hPa | 0 mm | - | 48 W/m² | - |
| 1787360833 | 30° C | 26% | 1021.3 hPa | 0 mm | - | 52 W/m² | - |
| 1787360528 | 30° C | 34% | 1021.6 hPa | 0 mm | - | 57 W/m² | - |
| 1787360223 | 30° C | 33% | 1021.3 hPa | 0 mm | - | 74 W/m² | - |
| 1787359918 | 30.56° C | 33% | 1021.3 hPa | 0 mm | - | 75 W/m² | - |
| 1787359614 | 30.56° C | 33% | 1021.3 hPa | 0 mm | - | 78 W/m² | - |
| 1787359309 | 30.56° C | 33% | 1021.2 hPa | 0 mm | - | 74 W/m² | - |
| 1787359005 | 31.11° C | 32% | 1021 hPa | 0 mm | - | 77 W/m² | - |
| 1787358700 | 31.67° C | 31% | 1021 hPa | 0 mm | - | 93 W/m² | - |
| 1787358399 | 31.67° C | 30% | 1020.9 hPa | 0 mm | - | 104 W/m² | - |
| 1787358094 | 32.22° C | 29% | 1020.9 hPa | 0 mm | - | 101 W/m² | - |
| 1787357790 | 32.22° C | 28% | 1020.8 hPa | 0 mm | - | 104 W/m² | - |
| 1787357485 | 32.78° C | 28% | 1020.9 hPa | 0 mm | - | 112 W/m² | - |
| 1787357180 | 33.33° C | 27% | 1020.8 hPa | 0 mm | - | 110 W/m² | - |
| 1787356877 | 33.33° C | 27% | 1020.9 hPa | 0 mm | - | 116 W/m² | - |
* Rain latest hour (hover to see other rain measurements)
** Current wind speed in m/s (hover to see current wind gust speed)